Nearby METAR Reports

 

KMTN - Baltimore/Martin, Maryland, USA
Distance from station: SSE 8mi, 13km
Updated: Sat, 05-Sep-2015 7:45am EDT
Mostly cloudy
Mostly cloudy
 Wind from ENE
Wind: ENE 5 mph , 7 km/h
Temperature: 73°F , 23°C
Dew Point: 70°F , 21°C
Humidity: 89%
Barometer: 30.24 inHg , 1024 hPa
Clouds: Mostly cloudy
Visibility: 10 miles , 16 km
Cloud details: Mostly cloudy 2700 ft
2015/09/05 11:45 KMTN 051145Z 06004KT 10SM BKN027 23/21 A3024
KDMH - Baltimore/Dwntwn, Maryland, USA
Distance from station: SW 12mi, 19km
Updated: Sat, 05-Sep-2015 7:54am EDT

 
Temperature: 73°F , 23°C
Dew Point: 66°F , 19°C
Humidity: 78%
Barometer: 30.23 inHg , 1023.7 hPa
2015/09/05 11:54 KDMH 051154Z AUTO 23/19 A3023 RMK AO1 SLP235 T02330189 10244 20228 51014
 
KBWI - Balto/Wash Intl, Maryland, USA
Distance from station: SSW 20mi, 33km
Updated: Sat, 05-Sep-2015 7:54am EDT
Overcast
Overcast
 Wind from ENE
Wind: ENE 9 mph , 15 km/h
Temperature: 73°F , 23°C
Dew Point: 66°F , 19°C
Humidity: 78%
Barometer: 30.22 inHg , 1023.4 hPa
Clouds: Overcast
Visibility: 10 miles , 16 km
Cloud details: Few Clouds 1800 ft
Overcast 2900 ft
2015/09/05 11:54 KBWI 051154Z 07008KT 10SM FEW018 OVC029 23/19 A3022 RMK AO2 SLP231 T02280189 10239 20228 51014
KDMW - Carroll Cnty, Maryland, USA
Distance from station: WNW 30mi, 48km
Updated: Sat, 05-Sep-2015 8:10am EDT
Overcast
Overcast
 Wind from calm
Wind: Calm
Temperature: 70°F , 21°C
Dew Point: 66°F , 19°C
Humidity: 88%
Barometer: 30.26 inHg , 1024.7 hPa
Clouds: Overcast
Visibility: 10 miles , 16 km
Cloud details: Mostly cloudy 1400 ft
Overcast 2200 ft
2015/09/05 12:10 KDMW 051210Z AUTO 00000KT 10SM BKN014 OVC022 21/19 A3026 RMK AO2
 
KNAK - Annapolis/Naval, Maryland, USA
Distance from station: S 30mi, 48km
Updated: Sat, 05-Sep-2015 7:54am EDT
Mostly cloudy
Mostly cloudy
 Wind from ENE
Wind: ENE 12 mph , 19 km/h
Temperature: 73°F , 23°C
Dew Point: 70°F , 21°C
Humidity: 89%
Barometer: 30.21 inHg , 1023 hPa
Clouds: Mostly cloudy
Visibility: 9 miles , 14 km
Cloud details: Mostly cloudy 3300 ft
2015/09/05 11:54 KNAK 051154Z AUTO 06010KT 9SM BKN033 23/21 A3021 RMK AO2 SLP230 T02330206 10239 20228 51015
KW29 - Stevensville, Maryland, USA
Distance from station: SSE 31mi, 50km
Updated: Sat, 05-Sep-2015 8:10am EDT

 Wind from ENE
Wind: ENE 7 mph , 11 km/h
Temperature: 72°F , 22°C
Dew Point: 66°F , 19°C
Humidity: 83%
Barometer: 30.22 inHg , 1023.4 hPa
Visibility: 10 miles , 16 km
2015/09/05 12:10 KW29 051210Z AUTO 06006KT 10SM 22/19 A3022 RMK AO1
 
KCGS - College Park, Maryland, USA
Distance from station: SW 38mi, 61km
Updated: Sat, 05-Sep-2015 8:10am EDT
Overcast
Overcast
 Wind from ENE
Wind: ENE 3 mph , 6 km/h
Temperature: 73°F , 23°C
Dew Point: 68°F , 20°C
Humidity: 83%
Barometer: 30.22 inHg , 1023.4 hPa
Clouds: Overcast
Visibility: 10 miles , 16 km
Cloud details: Mostly cloudy 1600 ft
Overcast 3500 ft
2015/09/05 12:10 KCGS 051210Z AUTO 07003KT 10SM BKN016 OVC035 23/20 A3022 RMK AO1
KGAI - Gaithersburg, Maryland, USA
Distance from station: WSW 40mi, 65km
Updated: Sat, 05-Sep-2015 7:55am EDT
Overcast
Overcast
 Wind from E
Wind: E 5 mph , 7 km/h
Temperature: 72°F , 22°C
Dew Point: 64°F , 18°C
Humidity: 78%
Barometer: 30.27 inHg , 1025.1 hPa
Clouds: Overcast
Visibility: 10 miles , 16 km
Cloud details: Few Clouds 1400 ft
Overcast 2600 ft
2015/09/05 11:55 KGAI 051155Z AUTO 08004KT 10SM FEW014 OVC026 22/18 A3027 RMK AO1 10230 20210 52017
 
KTHV - York, Pennsylvania, USA
Distance from station: NNW 40mi, 65km
Updated: Sat, 05-Sep-2015 7:53am EDT
Overcast
Overcast
 Wind from E
Wind: E 6 mph , 9 km/h
Temperature: 70°F , 21°C
Dew Point: 64°F , 18°C
Humidity: 83%
Barometer: 30.26 inHg , 1024.7 hPa
Clouds: Overcast
Visibility: 9 miles , 14 km
Cloud details: Few Clouds 1600 ft
Overcast 2400 ft
2015/09/05 11:53 KTHV 051153Z AUTO 10005KT 9SM FEW016 OVC024 21/18 A3026 RMK AO2 SLP244 T02110183 10222 20211 53017
KFDK - Frederick, Maryland, USA
Distance from station: W 47mi, 75km
Updated: Sat, 05-Sep-2015 7:47am EDT
Overcast
Overcast
 Wind from E
Wind: E 6 mph , 9 km/h
Temperature: 72°F , 22°C
Dew Point: 68°F , 20°C
Humidity: 88%
Barometer: 30.26 inHg , 1024.7 hPa
Clouds: Overcast
Visibility: 10 miles , 16 km
Cloud details: Overcast 3000 ft
2015/09/05 11:47 KFDK 051147Z 09005KT 10SM OVC030 22/20 A3026
 
KESN - Easton/Newnam, Maryland, USA
Distance from station: SSE 48mi, 78km
Updated: Sat, 05-Sep-2015 7:45am EDT
Partly cloudy
Partly cloudy
 Wind from NNE
Wind: NNE 6 mph , 9 km/h
Temperature: 72°F , 22°C
Dew Point: 72°F , 22°C
Humidity: 100%
Barometer: 30.24 inHg , 1024 hPa
Clouds: Partly cloudy
Visibility: 7 miles , 11 km
Cloud details: Partly cloudy 15000 ft
2015/09/05 11:45 KESN 051145Z 03005KT 7SM SCT150 22/22 A3024
KDCA - Washington/Natl, Washington D.c., USA
Distance from station: SW 49mi, 79km
Updated: Sat, 05-Sep-2015 7:52am EDT
Overcast
Overcast
 Wind from ENE
Wind: ENE 10 mph , 17 km/h
Temperature: 73°F , 23°C
Dew Point: 68°F , 20°C
Humidity: 83%
Barometer: 30.22 inHg , 1023.4 hPa
Clouds: Overcast
Visibility: 10 miles , 16 km
Cloud details: Few Clouds 1400 ft
Partly cloudy 2700 ft
Overcast 3200 ft
2015/09/05 11:52 KDCA 051152Z 06009KT 10SM FEW014 SCT027 OVC032 23/20 A3022 RMK AO2 SLP232 T02330200 10244 20233 51016
 
KLNS - Lancaster, Pennsylvania, USA
Distance from station: N 49mi, 79km
Updated: Sat, 05-Sep-2015 7:53am EDT
Overcast
Overcast
 Wind from ENE
Wind: ENE 5 mph , 7 km/h
Temperature: 68°F , 20°C
Dew Point: 64°F , 18°C
Humidity: 88%
Barometer: 30.26 inHg , 1024.7 hPa
Clouds: Overcast
Visibility: 9 miles , 14 km
Cloud details: Overcast 2100 ft
2015/09/05 11:53 KLNS 051153Z 07004KT 9SM OVC021 20/18 A3026 RMK AO2 SLP245 70007 T02000183 10217 20183 51013
KILG - Wilmington, Delaware, USA
Distance from station: ENE 50mi, 81km
Updated: Sat, 05-Sep-2015 7:51am EDT
Overcast
Overcast
 Wind from ENE
Wind: ENE 13 mph , 20 km/h
Temperature: 72°F , 22°C
Dew Point: 63°F , 17°C
Humidity: 73%
Barometer: 30.24 inHg , 1024 hPa
Clouds: Overcast
Visibility: 10 miles , 16 km
Cloud details: Overcast 1800 ft
2015/09/05 11:51 KILG 051151Z 07011KT 10SM OVC018 22/17 A3024 RMK AO2 SLP240 T02220172 10228 20217 51013 $